Terminal Aerodrome Forecast
Issued by NWS Bismarck, ND

Home | Current Version | Previous Version | Text Only | Print | Product List | Glossary Off
Versions: 1 2 3 4 5 6 7 8 9 10 11 12 13 14 15 16

086
FTUS43 KBIS 221120
TAFBIS
TAF
KBIS 221120Z 2212/2312 23003KT P6SM SCT250
     FM221500 25008KT P6SM FEW250
     FM230300 VRB04KT P6SM FEW080 SCT200=

USA.gov is the U.S. government's official web portal to all federal, state and local government web resources and services.